AFR136 LFPG-KORD
Flight info
| Callsign | AFR136 |
|---|---|
| Flight time | 8h 1m |
| Altitude | 38000 |
| Route | ELCOB UT300 SENLO DCT JSY DCT LIZAD DCT LESLU DCT MALOT/M084F390 NATC ELSIR/N0483F400 N414A ANATI DCT KAPUX DCT HOCKE DCT FNT WYNDE2 |
| Aircraft | A359/H-SDE2E3GHIJ3J4J5LM1ORWXY/LB1D1 |
Departure
| Time | 2026-04-30 11:11 |
|---|---|
| Airport | Charles de Gaulle International Airport (LFPG) |
Arrival
| Time | 2026-04-30 19:12 |
|---|---|
| Airport | Chicago O'Hare International Airport (KORD) |
| Time | Latitude | Longitude | Altitude | Speed | Heading |
|---|---|---|---|---|---|
| 2026-04-30 10:41 | 49.00126 | 2.57625 | 361 ft | 0 kts | 357° |
| 2026-04-30 10:42 | 49.00125 | 2.57625 | 361 ft | 0 kts | 357° |
| 2026-04-30 10:44 | 49.00126 | 2.57625 | 361 ft | 0 kts | 357° |
| 2026-04-30 10:59 | 49.00116 | 2.57626 | 362 ft | 4 kts | 342° |
| 2026-04-30 11:00 | 49.00097 | 2.57634 | 360 ft | 3 kts | 355° |
| 2026-04-30 11:00 | 49.00072 | 2.57642 | 360 ft | 4 kts | 326° |
| 2026-04-30 11:00 | 49.00059 | 2.57669 | 368 ft | 3 kts | 266° |
| 2026-04-30 11:00 | 49.00061 | 2.57694 | 365 ft | 4 kts | 265° |
| 2026-04-30 11:01 | 49.00062 | 2.57721 | 366 ft | 0 kts | 265° |
| 2026-04-30 11:03 | 49.00062 | 2.57715 | 366 ft | 2 kts | 265° |
| 2026-04-30 11:04 | 49.00061 | 2.57696 | 365 ft | 1 kts | 264° |
| 2026-04-30 11:04 | 49.00059 | 2.57680 | 364 ft | 3 kts | 264° |
| 2026-04-30 11:04 | 49.00056 | 2.57620 | 367 ft | 9 kts | 264° |
| 2026-04-30 11:04 | 49.00049 | 2.57500 | 366 ft | 13 kts | 265° |
| 2026-04-30 11:05 | 49.00038 | 2.57356 | 363 ft | 14 kts | 255° |
| 2026-04-30 11:05 | 48.99972 | 2.57250 | 367 ft | 14 kts | 231° |
| 2026-04-30 11:05 | 48.99946 | 2.57103 | 366 ft | 15 kts | 265° |
| 2026-04-30 11:05 | 48.99937 | 2.56936 | 360 ft | 16 kts | 265° |
| 2026-04-30 11:06 | 48.99930 | 2.56804 | 368 ft | 12 kts | 265° |
| 2026-04-30 11:06 | 48.99923 | 2.56668 | 362 ft | 14 kts | 266° |
| 2026-04-30 11:06 | 48.99914 | 2.56514 | 366 ft | 15 kts | 265° |
| 2026-04-30 11:06 | 48.99906 | 2.56345 | 363 ft | 17 kts | 266° |
| 2026-04-30 11:07 | 48.99897 | 2.56162 | 360 ft | 18 kts | 265° |
| 2026-04-30 11:07 | 48.99889 | 2.55998 | 360 ft | 10 kts | 269° |
| 2026-04-30 11:07 | 48.99899 | 2.55888 | 364 ft | 11 kts | 281° |
| 2026-04-30 11:07 | 48.99871 | 2.55792 | 366 ft | 10 kts | 206° |
| 2026-04-30 11:08 | 48.99827 | 2.55795 | 368 ft | 1 kts | 172° |
| 2026-04-30 11:08 | 48.99825 | 2.55796 | 367 ft | 0 kts | 171° |
| 2026-04-30 11:08 | 48.99818 | 2.55797 | 367 ft | 3 kts | 172° |
| 2026-04-30 11:08 | 48.99782 | 2.55803 | 366 ft | 7 kts | 175° |
| 2026-04-30 11:09 | 48.99728 | 2.55809 | 363 ft | 8 kts | 175° |
| 2026-04-30 11:09 | 48.99665 | 2.55817 | 368 ft | 10 kts | 175° |
| 2026-04-30 11:09 | 48.99623 | 2.55829 | 362 ft | 5 kts | 152° |
| 2026-04-30 11:09 | 48.99607 | 2.55880 | 366 ft | 5 kts | 100° |
| 2026-04-30 11:10 | 48.99608 | 2.55924 | 367 ft | 3 kts | 88° |
| 2026-04-30 11:10 | 48.99614 | 2.56077 | 367 ft | 38 kts | 85° |
| 2026-04-30 11:10 | 48.99652 | 2.56798 | 361 ft | 97 kts | 85° |
| 2026-04-30 11:10 | 48.99721 | 2.58091 | 370 ft | 146 kts | 85° |
| 2026-04-30 11:11 | 48.99823 | 2.59644 | 987 ft | 139 kts | 84° |
| 2026-04-30 11:11 | 48.99915 | 2.61122 | 1611 ft | 142 kts | 88° |
| 2026-04-30 11:11 | 48.99977 | 2.62626 | 2169 ft | 140 kts | 88° |
| 2026-04-30 11:11 | 49.00017 | 2.64110 | 2499 ft | 144 kts | 92° |
| 2026-04-30 11:12 | 49.00069 | 2.65670 | 2923 ft | 150 kts | 91° |
| 2026-04-30 11:12 | 49.00144 | 2.67258 | 3399 ft | 150 kts | 90° |
| 2026-04-30 11:12 | 49.00224 | 2.68892 | 3669 ft | 162 kts | 90° |
| 2026-04-30 11:12 | 49.00281 | 2.70698 | 3864 ft | 179 kts | 91° |
| 2026-04-30 11:13 | 49.00342 | 2.72667 | 4085 ft | 195 kts | 90° |
| 2026-04-30 11:13 | 49.00434 | 2.74824 | 4322 ft | 214 kts | 89° |
| 2026-04-30 11:13 | 49.00464 | 2.77164 | 4600 ft | 227 kts | 100° |
| 2026-04-30 11:13 | 48.99959 | 2.79490 | 4924 ft | 239 kts | 119° |
| 2026-04-30 11:14 | 48.98826 | 2.81398 | 5275 ft | 252 kts | 146° |
| 2026-04-30 11:14 | 48.97136 | 2.82122 | 5841 ft | 262 kts | 178° |
| 2026-04-30 11:14 | 48.95428 | 2.81149 | 6477 ft | 271 kts | 217° |
| 2026-04-30 11:14 | 48.94410 | 2.78721 | 7071 ft | 281 kts | 248° |
| 2026-04-30 11:15 | 48.93664 | 2.75936 | 7418 ft | 289 kts | 238° |
| 2026-04-30 11:15 | 48.92630 | 2.73263 | 7802 ft | 298 kts | 238° |
| 2026-04-30 11:15 | 48.91619 | 2.70513 | 8295 ft | 303 kts | 240° |
| 2026-04-30 11:15 | 48.90637 | 2.67747 | 9054 ft | 298 kts | 238° |
| 2026-04-30 11:16 | 48.89613 | 2.65008 | 9720 ft | 298 kts | 236° |
| 2026-04-30 11:16 | 48.88580 | 2.62255 | 10267 ft | 300 kts | 237° |
| 2026-04-30 11:16 | 48.87555 | 2.59512 | 10611 ft | 310 kts | 238° |
| 2026-04-30 11:16 | 48.86451 | 2.56551 | 10869 ft | 324 kts | 237° |
| 2026-04-30 11:17 | 48.85318 | 2.53513 | 11082 ft | 337 kts | 238° |
| 2026-04-30 11:17 | 48.84145 | 2.50359 | 11293 ft | 349 kts | 238° |
| 2026-04-30 11:17 | 48.82932 | 2.47095 | 11501 ft | 360 kts | 238° |
| 2026-04-30 11:17 | 48.81732 | 2.43701 | 11754 ft | 371 kts | 243° |
| 2026-04-30 11:18 | 48.80952 | 2.39924 | 12072 ft | 381 kts | 259° |
| 2026-04-30 11:18 | 48.81613 | 2.31871 | 12884 ft | 392 kts | 286° |
| 2026-04-30 11:18 | 48.82409 | 2.27916 | 13385 ft | 393 kts | 286° |
| 2026-04-30 11:19 | 48.83221 | 2.23920 | 13742 ft | 398 kts | 287° |
| 2026-04-30 11:19 | 48.84031 | 2.19915 | 14227 ft | 398 kts | 286° |
| 2026-04-30 11:19 | 48.84843 | 2.15874 | 14565 ft | 402 kts | 286° |
| 2026-04-30 11:19 | 48.85660 | 2.11801 | 14913 ft | 406 kts | 286° |
| 2026-04-30 11:20 | 48.86481 | 2.07691 | 15305 ft | 407 kts | 286° |
| 2026-04-30 11:20 | 48.87303 | 2.03565 | 15692 ft | 410 kts | 286° |
| 2026-04-30 11:20 | 48.88131 | 1.99400 | 16071 ft | 412 kts | 286° |
| 2026-04-30 11:20 | 48.88960 | 1.95220 | 16467 ft | 414 kts | 285° |
| 2026-04-30 11:21 | 48.89793 | 1.91011 | 16854 ft | 417 kts | 285° |
| 2026-04-30 11:21 | 48.90627 | 1.86785 | 17227 ft | 419 kts | 285° |
| 2026-04-30 11:21 | 48.91466 | 1.82524 | 17588 ft | 422 kts | 285° |
| 2026-04-30 11:21 | 48.92308 | 1.78239 | 17963 ft | 425 kts | 285° |
| 2026-04-30 11:22 | 48.93154 | 1.73925 | 18339 ft | 428 kts | 285° |
| 2026-04-30 11:22 | 48.94008 | 1.69558 | 18584 ft | 433 kts | 285° |
| 2026-04-30 11:22 | 48.94867 | 1.65154 | 18918 ft | 435 kts | 285° |
| 2026-04-30 11:22 | 48.95727 | 1.60740 | 19248 ft | 437 kts | 285° |
| 2026-04-30 11:23 | 48.96591 | 1.56292 | 19568 ft | 439 kts | 285° |
| 2026-04-30 11:23 | 48.97457 | 1.51823 | 19897 ft | 441 kts | 285° |
| 2026-04-30 11:23 | 48.99195 | 1.42822 | 20520 ft | 445 kts | 285° |
| 2026-04-30 11:24 | 49.00068 | 1.38288 | 20818 ft | 447 kts | 285° |
| 2026-04-30 11:24 | 49.00943 | 1.33730 | 21130 ft | 450 kts | 285° |
| 2026-04-30 11:24 | 49.01822 | 1.29142 | 21418 ft | 452 kts | 284° |
| 2026-04-30 11:25 | 49.03226 | 1.19781 | 22011 ft | 454 kts | 274° |
| 2026-04-30 11:25 | 49.03506 | 1.14985 | 22312 ft | 455 kts | 271° |
| 2026-04-30 11:25 | 49.03789 | 1.05371 | 22876 ft | 459 kts | 269° |
| 2026-04-30 11:26 | 49.04007 | 0.95577 | 23447 ft | 463 kts | 269° |
| 2026-04-30 11:26 | 49.04130 | 0.90653 | 23702 ft | 465 kts | 270° |
| 2026-04-30 11:26 | 49.04261 | 0.85766 | 23963 ft | 467 kts | 270° |
| 2026-04-30 11:27 | 49.04398 | 0.80822 | 24255 ft | 467 kts | 270° |
| 2026-04-30 11:27 | 49.04537 | 0.75876 | 24533 ft | 468 kts | 270° |
| 2026-04-30 11:27 | 49.04676 | 0.70909 | 24829 ft | 469 kts | 270° |
| 2026-04-30 11:27 | 49.04813 | 0.65936 | 25107 ft | 470 kts | 270° |
| 2026-04-30 11:28 | 49.05080 | 0.55949 | 25653 ft | 472 kts | 270° |
| 2026-04-30 11:28 | 49.05210 | 0.50939 | 25936 ft | 473 kts | 270° |
| 2026-04-30 11:28 | 49.05338 | 0.45918 | 26220 ft | 474 kts | 270° |
| 2026-04-30 11:29 | 49.05462 | 0.40961 | 26587 ft | 472 kts | 270° |
| 2026-04-30 11:29 | 49.05586 | 0.35971 | 27063 ft | 469 kts | 270° |
| 2026-04-30 11:29 | 49.05826 | 0.25958 | 27626 ft | 473 kts | 270° |
| 2026-04-30 11:30 | 49.06056 | 0.15955 | 28133 ft | 476 kts | 270° |
| 2026-04-30 11:30 | 49.06169 | 0.10890 | 28475 ft | 477 kts | 270° |
| 2026-04-30 11:30 | 49.06280 | 0.05821 | 28851 ft | 477 kts | 270° |
| 2026-04-30 11:31 | 49.06390 | 0.00734 | 29088 ft | 479 kts | 270° |
| 2026-04-30 11:31 | 49.06498 | -0.04315 | 29318 ft | 482 kts | 270° |
| 2026-04-30 11:31 | 49.06603 | -0.09416 | 29674 ft | 482 kts | 270° |
| 2026-04-30 11:31 | 49.06705 | -0.14531 | 30042 ft | 482 kts | 270° |
| 2026-04-30 11:32 | 49.06806 | -0.19658 | 30281 ft | 485 kts | 270° |
| 2026-04-30 11:32 | 49.06906 | -0.24844 | 30411 ft | 489 kts | 270° |
| 2026-04-30 11:32 | 49.07008 | -0.30045 | 30685 ft | 490 kts | 270° |
| 2026-04-30 11:33 | 49.07199 | -0.40402 | 31148 ft | 493 kts | 270° |
| 2026-04-30 11:33 | 49.07291 | -0.45661 | 31305 ft | 496 kts | 270° |
| 2026-04-30 11:33 | 49.07381 | -0.50930 | 31560 ft | 497 kts | 270° |
| 2026-04-30 11:33 | 49.07469 | -0.56199 | 31825 ft | 497 kts | 270° |
| 2026-04-30 11:34 | 49.07555 | -0.61482 | 31961 ft | 501 kts | 270° |
| 2026-04-30 11:34 | 49.07638 | -0.66814 | 32155 ft | 502 kts | 270° |
| 2026-04-30 11:34 | 49.07721 | -0.72109 | 32551 ft | 499 kts | 270° |
| 2026-04-30 11:34 | 49.07800 | -0.77320 | 32900 ft | 497 kts | 270° |
| 2026-04-30 11:35 | 49.07878 | -0.82606 | 33106 ft | 499 kts | 270° |
| 2026-04-30 11:35 | 49.07953 | -0.87900 | 33330 ft | 499 kts | 270° |
| 2026-04-30 11:35 | 49.08024 | -0.93184 | 33670 ft | 498 kts | 270° |
| 2026-04-30 11:35 | 49.08093 | -0.98454 | 34000 ft | 497 kts | 270° |
| 2026-04-30 11:36 | 49.08160 | -1.03720 | 34208 ft | 497 kts | 270° |
| 2026-04-30 11:36 | 49.08224 | -1.09004 | 34450 ft | 497 kts | 269° |
| 2026-04-30 11:36 | 49.08313 | -1.14257 | 34720 ft | 495 kts | 272° |
| 2026-04-30 11:36 | 49.08727 | -1.19474 | 34979 ft | 496 kts | 280° |
| 2026-04-30 11:37 | 49.09429 | -1.24616 | 35189 ft | 496 kts | 281° |
| 2026-04-30 11:37 | 49.10210 | -1.29755 | 35360 ft | 497 kts | 282° |
| 2026-04-30 11:37 | 49.11033 | -1.34877 | 35699 ft | 494 kts | 282° |
| 2026-04-30 11:37 | 49.11866 | -1.39953 | 36023 ft | 492 kts | 282° |
| 2026-04-30 11:38 | 49.12698 | -1.45021 | 36246 ft | 491 kts | 282° |
| 2026-04-30 11:38 | 49.13521 | -1.50072 | 36448 ft | 491 kts | 282° |
| 2026-04-30 11:38 | 49.14337 | -1.55134 | 36655 ft | 491 kts | 282° |
| 2026-04-30 11:38 | 49.15147 | -1.60199 | 36855 ft | 490 kts | 282° |
| 2026-04-30 11:39 | 49.15950 | -1.65251 | 37070 ft | 490 kts | 282° |
| 2026-04-30 11:39 | 49.16749 | -1.70306 | 37265 ft | 489 kts | 282° |
| 2026-04-30 11:39 | 49.17543 | -1.75351 | 37470 ft | 488 kts | 282° |
| 2026-04-30 11:39 | 49.18336 | -1.80394 | 37661 ft | 487 kts | 281° |
| 2026-04-30 11:40 | 49.19124 | -1.85424 | 37876 ft | 486 kts | 281° |
| 2026-04-30 11:40 | 49.19909 | -1.90452 | 38027 ft | 486 kts | 281° |
| 2026-04-30 11:40 | 49.21477 | -2.00549 | 38050 ft | 490 kts | 281° |
| 2026-04-30 11:41 | 49.23084 | -2.10683 | 38079 ft | 491 kts | 282° |
| 2026-04-30 11:41 | 49.24838 | -2.20791 | 38085 ft | 491 kts | 283° |
| 2026-04-30 11:42 | 49.26587 | -2.30814 | 38081 ft | 490 kts | 283° |
| 2026-04-30 11:42 | 49.28315 | -2.40910 | 38079 ft | 490 kts | 282° |
| 2026-04-30 11:43 | 49.30023 | -2.51026 | 38077 ft | 490 kts | 282° |
| 2026-04-30 11:43 | 49.31718 | -2.61138 | 38076 ft | 490 kts | 282° |
| 2026-04-30 11:44 | 49.33403 | -2.71251 | 38079 ft | 490 kts | 282° |
| 2026-04-30 11:44 | 49.35084 | -2.81394 | 38086 ft | 491 kts | 282° |
| 2026-04-30 11:45 | 49.36759 | -2.91557 | 38083 ft | 491 kts | 282° |
| 2026-04-30 11:45 | 49.38422 | -3.01711 | 38083 ft | 491 kts | 282° |
| 2026-04-30 11:46 | 49.40078 | -3.11885 | 38083 ft | 491 kts | 282° |
| 2026-04-30 11:46 | 49.41726 | -3.22068 | 38077 ft | 492 kts | 281° |
| 2026-04-30 11:47 | 49.43360 | -3.32231 | 38079 ft | 492 kts | 281° |
| 2026-04-30 11:47 | 49.44723 | -3.40754 | 38070 ft | 492 kts | 281° |
| 2026-04-30 11:48 | 49.46613 | -3.52641 | 38073 ft | 492 kts | 281° |
| 2026-04-30 11:48 | 49.47959 | -3.61162 | 38076 ft | 492 kts | 281° |
| 2026-04-30 11:49 | 49.49831 | -3.73088 | 38068 ft | 493 kts | 281° |
| 2026-04-30 11:49 | 49.51173 | -3.81696 | 38067 ft | 493 kts | 281° |
| 2026-04-30 11:50 | 49.52739 | -3.91791 | 38067 ft | 493 kts | 281° |
| 2026-04-30 11:50 | 49.54336 | -4.02151 | 38062 ft | 493 kts | 280° |
| 2026-04-30 11:51 | 49.55909 | -4.12427 | 38058 ft | 492 kts | 280° |
| 2026-04-30 11:51 | 49.57470 | -4.22687 | 38059 ft | 492 kts | 280° |
| 2026-04-30 11:52 | 49.59392 | -4.32807 | 38056 ft | 496 kts | 291° |
| 2026-04-30 11:52 | 49.62730 | -4.42147 | 38052 ft | 499 kts | 299° |
| 2026-04-30 11:53 | 49.66423 | -4.51216 | 38078 ft | 500 kts | 300° |
| 2026-04-30 11:53 | 49.70167 | -4.60266 | 38063 ft | 500 kts | 300° |
| 2026-04-30 11:54 | 49.73887 | -4.69347 | 38065 ft | 500 kts | 299° |
| 2026-04-30 11:54 | 49.77587 | -4.78460 | 38062 ft | 500 kts | 299° |
| 2026-04-30 11:55 | 49.81276 | -4.87597 | 38065 ft | 500 kts | 299° |
| 2026-04-30 11:55 | 49.84954 | -4.96738 | 38060 ft | 500 kts | 299° |
| 2026-04-30 11:56 | 49.88624 | -5.05886 | 38065 ft | 501 kts | 298° |
| 2026-04-30 11:56 | 49.92298 | -5.15076 | 38051 ft | 501 kts | 298° |
| 2026-04-30 11:57 | 49.95972 | -5.24298 | 38051 ft | 502 kts | 298° |
| 2026-04-30 11:57 | 49.99612 | -5.33467 | 38047 ft | 502 kts | 298° |
| 2026-04-30 11:58 | 50.03265 | -5.42699 | 38052 ft | 501 kts | 298° |
| 2026-04-30 11:58 | 50.06909 | -5.51943 | 38057 ft | 501 kts | 298° |
| 2026-04-30 11:59 | 50.10551 | -5.61214 | 38049 ft | 503 kts | 298° |
| 2026-04-30 11:59 | 50.14192 | -5.70517 | 38019 ft | 503 kts | 298° |
| 2026-04-30 12:00 | 50.17829 | -5.79842 | 38023 ft | 502 kts | 298° |
| 2026-04-30 12:00 | 50.21449 | -5.89158 | 38030 ft | 503 kts | 298° |
| 2026-04-30 12:01 | 50.25066 | -5.98496 | 38056 ft | 503 kts | 298° |
| 2026-04-30 12:01 | 50.28671 | -6.07838 | 38047 ft | 502 kts | 297° |
| 2026-04-30 12:02 | 50.32262 | -6.17178 | 38048 ft | 502 kts | 297° |
| 2026-04-30 12:02 | 50.35852 | -6.26549 | 38049 ft | 503 kts | 297° |
| 2026-04-30 12:03 | 50.41225 | -6.40638 | 38049 ft | 502 kts | 297° |
| 2026-04-30 12:04 | 50.44800 | -6.50056 | 38063 ft | 502 kts | 297° |
| 2026-04-30 12:04 | 50.48366 | -6.59482 | 38048 ft | 503 kts | 297° |
| 2026-04-30 12:05 | 50.51938 | -6.68960 | 38051 ft | 504 kts | 297° |
| 2026-04-30 12:05 | 50.55493 | -6.78429 | 38047 ft | 504 kts | 297° |
| 2026-04-30 12:06 | 50.59046 | -6.87923 | 38048 ft | 503 kts | 297° |
| 2026-04-30 12:06 | 50.62587 | -6.97425 | 38045 ft | 503 kts | 297° |
| 2026-04-30 12:07 | 50.66122 | -7.06941 | 38046 ft | 504 kts | 296° |
| 2026-04-30 12:07 | 50.69658 | -7.16502 | 38041 ft | 506 kts | 296° |
| 2026-04-30 12:08 | 50.73171 | -7.26031 | 38043 ft | 506 kts | 296° |
| 2026-04-30 12:08 | 50.76698 | -7.35634 | 38045 ft | 506 kts | 296° |
| 2026-04-30 12:09 | 50.80220 | -7.45260 | 38044 ft | 506 kts | 296° |
| 2026-04-30 12:09 | 50.83730 | -7.54889 | 38055 ft | 506 kts | 296° |
| 2026-04-30 12:10 | 50.87238 | -7.64551 | 38045 ft | 508 kts | 296° |
| 2026-04-30 12:10 | 50.90752 | -7.74263 | 38041 ft | 508 kts | 296° |
| 2026-04-30 12:11 | 50.94261 | -7.83997 | 38045 ft | 508 kts | 296° |
| 2026-04-30 12:11 | 50.97756 | -7.93731 | 38040 ft | 508 kts | 296° |
| 2026-04-30 12:12 | 51.01232 | -8.03487 | 38039 ft | 507 kts | 295° |
| 2026-04-30 12:12 | 51.04506 | -8.13412 | 38037 ft | 508 kts | 293° |
| 2026-04-30 12:13 | 51.07709 | -8.23417 | 38045 ft | 509 kts | 293° |
| 2026-04-30 12:13 | 51.10939 | -8.33441 | 38040 ft | 509 kts | 293° |
| 2026-04-30 12:14 | 51.14160 | -8.43387 | 38021 ft | 509 kts | 293° |
| 2026-04-30 12:14 | 51.17397 | -8.53399 | 38023 ft | 509 kts | 293° |
| 2026-04-30 12:15 | 51.20629 | -8.63437 | 38031 ft | 510 kts | 293° |
| 2026-04-30 12:15 | 51.23860 | -8.73523 | 38030 ft | 512 kts | 293° |
| 2026-04-30 12:16 | 51.27086 | -8.83633 | 38030 ft | 512 kts | 293° |
| 2026-04-30 12:16 | 51.30305 | -8.93760 | 38032 ft | 512 kts | 293° |
| 2026-04-30 12:17 | 51.35119 | -9.08987 | 38031 ft | 512 kts | 293° |
| 2026-04-30 12:17 | 51.38310 | -9.19134 | 38036 ft | 513 kts | 293° |
| 2026-04-30 12:18 | 51.41493 | -9.29298 | 38026 ft | 514 kts | 293° |
| 2026-04-30 12:18 | 51.44684 | -9.39526 | 38036 ft | 514 kts | 293° |
| 2026-04-30 12:19 | 51.47846 | -9.49707 | 38025 ft | 514 kts | 293° |
| 2026-04-30 12:19 | 51.51014 | -9.59947 | 38024 ft | 514 kts | 293° |
| 2026-04-30 12:20 | 51.54172 | -9.70202 | 38040 ft | 514 kts | 293° |
| 2026-04-30 12:20 | 51.57308 | -9.80427 | 38028 ft | 516 kts | 293° |
| 2026-04-30 12:21 | 51.60457 | -9.90736 | 38035 ft | 516 kts | 293° |
| 2026-04-30 12:21 | 51.63605 | -10.01086 | 38030 ft | 516 kts | 293° |
| 2026-04-30 12:22 | 51.66743 | -10.11447 | 38024 ft | 516 kts | 293° |
| 2026-04-30 12:22 | 51.69871 | -10.21823 | 38028 ft | 516 kts | 293° |
| 2026-04-30 12:23 | 51.72968 | -10.32135 | 38026 ft | 516 kts | 293° |
| 2026-04-30 12:23 | 51.76082 | -10.42554 | 38023 ft | 516 kts | 293° |
| 2026-04-30 12:24 | 51.79162 | -10.52901 | 38024 ft | 516 kts | 292° |
| 2026-04-30 12:24 | 51.82260 | -10.63355 | 38023 ft | 515 kts | 292° |
| 2026-04-30 12:25 | 51.85342 | -10.73799 | 38029 ft | 515 kts | 292° |
| 2026-04-30 12:25 | 51.88389 | -10.84176 | 38028 ft | 515 kts | 293° |
| 2026-04-30 12:26 | 51.91447 | -10.94629 | 38304 ft | 513 kts | 293° |
| 2026-04-30 12:26 | 51.92970 | -10.99849 | 38617 ft | 510 kts | 293° |
| 2026-04-30 12:26 | 51.94478 | -11.05027 | 38841 ft | 507 kts | 293° |
| 2026-04-30 12:27 | 51.95977 | -11.10191 | 38974 ft | 506 kts | 293° |
| 2026-04-30 12:27 | 51.97471 | -11.15353 | 39031 ft | 507 kts | 293° |
| 2026-04-30 12:27 | 52.00476 | -11.25770 | 39035 ft | 511 kts | 293° |
| 2026-04-30 12:28 | 52.03479 | -11.36217 | 39043 ft | 510 kts | 293° |
| 2026-04-30 12:28 | 52.06473 | -11.46677 | 39038 ft | 510 kts | 293° |
| 2026-04-30 12:29 | 52.09454 | -11.57140 | 39037 ft | 510 kts | 293° |
| 2026-04-30 12:29 | 52.12428 | -11.67628 | 39040 ft | 510 kts | 293° |
| 2026-04-30 12:30 | 52.15393 | -11.78129 | 39042 ft | 510 kts | 292° |
| 2026-04-30 12:30 | 52.18348 | -11.88641 | 39043 ft | 510 kts | 292° |
| 2026-04-30 12:31 | 52.21292 | -11.99163 | 39044 ft | 510 kts | 293° |
| 2026-04-30 12:31 | 52.24228 | -12.09702 | 39045 ft | 511 kts | 293° |
| 2026-04-30 12:32 | 52.27137 | -12.20193 | 39045 ft | 511 kts | 293° |
| 2026-04-30 12:32 | 52.30052 | -12.30752 | 39045 ft | 511 kts | 292° |
| 2026-04-30 12:33 | 52.32949 | -12.41293 | 39052 ft | 511 kts | 292° |
| 2026-04-30 12:33 | 52.35833 | -12.51837 | 39052 ft | 511 kts | 293° |
| 2026-04-30 12:34 | 52.38704 | -12.62376 | 39055 ft | 511 kts | 293° |
| 2026-04-30 12:34 | 52.41141 | -12.71366 | 39054 ft | 510 kts | 292° |
| 2026-04-30 12:35 | 52.44420 | -12.83515 | 39056 ft | 511 kts | 292° |
| 2026-04-30 12:35 | 52.47272 | -12.94131 | 39062 ft | 511 kts | 292° |
| 2026-04-30 12:36 | 52.49681 | -13.03139 | 39062 ft | 511 kts | 292° |
| 2026-04-30 12:36 | 52.52515 | -13.13782 | 39057 ft | 510 kts | 292° |
| 2026-04-30 12:37 | 52.55331 | -13.24406 | 39064 ft | 509 kts | 292° |
| 2026-04-30 12:37 | 52.58141 | -13.35059 | 39065 ft | 509 kts | 292° |
| 2026-04-30 12:38 | 52.60930 | -13.45677 | 39070 ft | 509 kts | 292° |
| 2026-04-30 12:38 | 52.63734 | -13.56406 | 39069 ft | 509 kts | 292° |
| 2026-04-30 12:39 | 52.66508 | -13.67074 | 39078 ft | 509 kts | 292° |
| 2026-04-30 12:39 | 52.69293 | -13.77831 | 39075 ft | 510 kts | 292° |
| 2026-04-30 12:40 | 52.72071 | -13.88611 | 39072 ft | 510 kts | 292° |
| 2026-04-30 12:40 | 52.74823 | -13.99342 | 39078 ft | 510 kts | 292° |
| 2026-04-30 12:41 | 52.77566 | -14.10090 | 39078 ft | 510 kts | 292° |
| 2026-04-30 12:41 | 52.80313 | -14.20906 | 39078 ft | 510 kts | 292° |
| 2026-04-30 12:42 | 52.83047 | -14.31724 | 39083 ft | 509 kts | 292° |
| 2026-04-30 12:42 | 52.85758 | -14.42503 | 39085 ft | 509 kts | 292° |
| 2026-04-30 12:43 | 52.88469 | -14.53333 | 39088 ft | 508 kts | 292° |
| 2026-04-30 12:43 | 52.91166 | -14.64161 | 39088 ft | 508 kts | 292° |
| 2026-04-30 12:44 | 52.93853 | -14.75003 | 39097 ft | 508 kts | 292° |
| 2026-04-30 12:44 | 52.96516 | -14.85801 | 39096 ft | 508 kts | 292° |
| 2026-04-30 12:45 | 52.99069 | -14.96736 | 39099 ft | 507 kts | 285° |
| 2026-04-30 12:45 | 53.00158 | -15.08284 | 39104 ft | 506 kts | 272° |
| 2026-04-30 12:46 | 53.00472 | -15.19879 | 39113 ft | 506 kts | 270° |
| 2026-04-30 12:46 | 53.00654 | -15.31577 | 39105 ft | 506 kts | 270° |
| 2026-04-30 12:47 | 53.00830 | -15.43220 | 39117 ft | 505 kts | 270° |
| 2026-04-30 12:47 | 53.01017 | -15.54895 | 39115 ft | 504 kts | 270° |
| 2026-04-30 12:48 | 53.01201 | -15.66441 | 39117 ft | 502 kts | 270° |
| 2026-04-30 12:48 | 53.01376 | -15.78081 | 39116 ft | 503 kts | 270° |
| 2026-04-30 12:49 | 53.01538 | -15.89683 | 39123 ft | 502 kts | 270° |
| 2026-04-30 12:49 | 53.01688 | -16.01270 | 39126 ft | 504 kts | 270° |
| 2026-04-30 12:50 | 53.01828 | -16.12920 | 39128 ft | 503 kts | 270° |
| 2026-04-30 12:50 | 53.01956 | -16.24511 | 39132 ft | 504 kts | 270° |
| 2026-04-30 12:51 | 53.02073 | -16.36131 | 39137 ft | 503 kts | 270° |
| 2026-04-30 12:51 | 53.02178 | -16.47770 | 39148 ft | 503 kts | 271° |
| 2026-04-30 12:52 | 53.02270 | -16.59314 | 39143 ft | 499 kts | 271° |
| 2026-04-30 12:52 | 53.02353 | -16.70854 | 39147 ft | 498 kts | 271° |
| 2026-04-30 12:53 | 53.02424 | -16.82357 | 39146 ft | 499 kts | 270° |
| 2026-04-30 12:53 | 53.02484 | -16.93880 | 39150 ft | 498 kts | 270° |
| 2026-04-30 12:54 | 53.02533 | -17.05391 | 39155 ft | 499 kts | 270° |
| 2026-04-30 12:54 | 53.02571 | -17.16906 | 39154 ft | 498 kts | 270° |
| 2026-04-30 12:55 | 53.02597 | -17.28414 | 39158 ft | 499 kts | 270° |
| 2026-04-30 12:55 | 53.02612 | -17.39859 | 39162 ft | 498 kts | 270° |
| 2026-04-30 12:56 | 53.02616 | -17.51374 | 39162 ft | 499 kts | 270° |
| 2026-04-30 12:56 | 53.02609 | -17.62874 | 39168 ft | 497 kts | 270° |
| 2026-04-30 12:57 | 53.02591 | -17.74350 | 39173 ft | 497 kts | 270° |
| 2026-04-30 12:57 | 53.02562 | -17.85816 | 39172 ft | 496 kts | 269° |
| 2026-04-30 12:58 | 53.02522 | -17.97296 | 39181 ft | 497 kts | 269° |
| 2026-04-30 12:58 | 53.02471 | -18.08759 | 39179 ft | 496 kts | 270° |
| 2026-04-30 12:59 | 53.02409 | -18.20203 | 39183 ft | 495 kts | 269° |
| 2026-04-30 12:59 | 53.02336 | -18.31635 | 39181 ft | 495 kts | 269° |
| 2026-04-30 13:00 | 53.02253 | -18.43057 | 39194 ft | 495 kts | 269° |
| 2026-04-30 13:00 | 53.02158 | -18.54487 | 39195 ft | 495 kts | 269° |
| 2026-04-30 13:01 | 53.02052 | -18.65906 | 39191 ft | 493 kts | 270° |
| 2026-04-30 13:01 | 53.01937 | -18.77231 | 39190 ft | 488 kts | 269° |
| 2026-04-30 13:02 | 53.01812 | -18.88465 | 39197 ft | 486 kts | 269° |
| 2026-04-30 13:02 | 53.01676 | -18.99691 | 39198 ft | 486 kts | 269° |
| 2026-04-30 13:03 | 53.01530 | -19.10916 | 39197 ft | 486 kts | 269° |
| 2026-04-30 13:03 | 53.01373 | -19.22117 | 39197 ft | 485 kts | 269° |
| 2026-04-30 13:04 | 53.01206 | -19.33299 | 39203 ft | 484 kts | 269° |
| 2026-04-30 13:04 | 53.01029 | -19.44473 | 39208 ft | 484 kts | 269° |
| 2026-04-30 13:05 | 53.00843 | -19.55580 | 39208 ft | 484 kts | 269° |
| 2026-04-30 13:06 | 53.00541 | -19.72379 | 39208 ft | 484 kts | 269° |
| 2026-04-30 13:06 | 53.00328 | -19.83532 | 39209 ft | 483 kts | 269° |
| 2026-04-30 13:07 | 53.00105 | -19.94672 | 39217 ft | 483 kts | 269° |
| 2026-04-30 13:07 | 52.99815 | -20.05811 | 39216 ft | 483 kts | 266° |
| 2026-04-30 13:08 | 52.99156 | -20.16914 | 39221 ft | 483 kts | 265° |
| 2026-04-30 13:08 | 52.98423 | -20.27980 | 39222 ft | 482 kts | 265° |
| 2026-04-30 13:09 | 52.97731 | -20.39047 | 39217 ft | 481 kts | 265° |
| 2026-04-30 13:09 | 52.97068 | -20.50016 | 39228 ft | 482 kts | 265° |
| 2026-04-30 13:10 | 52.96399 | -20.61061 | 39226 ft | 481 kts | 265° |
| 2026-04-30 13:10 | 52.95717 | -20.72109 | 39227 ft | 481 kts | 265° |
| 2026-04-30 13:11 | 52.95024 | -20.83154 | 39230 ft | 482 kts | 265° |
| 2026-04-30 13:11 | 52.94318 | -20.94231 | 39229 ft | 482 kts | 265° |
| 2026-04-30 13:12 | 52.93606 | -21.05228 | 39230 ft | 482 kts | 265° |
| 2026-04-30 13:12 | 52.92880 | -21.16284 | 39231 ft | 482 kts | 264° |
| 2026-04-30 13:13 | 52.91772 | -21.32848 | 39235 ft | 482 kts | 265° |
| 2026-04-30 13:14 | 52.90640 | -21.49417 | 39238 ft | 482 kts | 265° |
| 2026-04-30 13:14 | 52.89486 | -21.65969 | 39244 ft | 482 kts | 264° |
| 2026-04-30 13:15 | 52.88308 | -21.82514 | 39250 ft | 481 kts | 265° |
| 2026-04-30 13:16 | 52.87514 | -21.93496 | 39253 ft | 481 kts | 265° |
| 2026-04-30 13:16 | 52.86709 | -22.04492 | 39251 ft | 481 kts | 265° |
| 2026-04-30 13:17 | 52.85485 | -22.20916 | 39262 ft | 480 kts | 264° |
| 2026-04-30 13:18 | 52.84231 | -22.37408 | 39265 ft | 480 kts | 264° |
| 2026-04-30 13:18 | 52.82966 | -22.53783 | 39265 ft | 480 kts | 265° |
| 2026-04-30 13:19 | 52.82106 | -22.64776 | 39269 ft | 481 kts | 264° |
| 2026-04-30 13:19 | 52.81239 | -22.75683 | 39274 ft | 481 kts | 265° |
| 2026-04-30 13:20 | 52.80353 | -22.86689 | 39276 ft | 483 kts | 265° |
| 2026-04-30 13:20 | 52.79461 | -22.97641 | 39283 ft | 482 kts | 264° |
| 2026-04-30 13:21 | 52.78555 | -23.08642 | 39289 ft | 483 kts | 264° |
| 2026-04-30 13:22 | 52.77180 | -23.25111 | 39294 ft | 483 kts | 264° |
| 2026-04-30 13:22 | 52.75784 | -23.41541 | 39293 ft | 483 kts | 264° |
| 2026-04-30 13:23 | 52.74518 | -23.56203 | 39302 ft | 483 kts | 264° |
| 2026-04-30 13:24 | 52.72591 | -23.78116 | 39298 ft | 483 kts | 264° |
| 2026-04-30 13:25 | 52.70625 | -24.00013 | 39309 ft | 483 kts | 263° |
| 2026-04-30 13:26 | 52.68102 | -24.27426 | 39306 ft | 483 kts | 263° |
| 2026-04-30 13:28 | 52.65530 | -24.54668 | 39320 ft | 483 kts | 263° |
| 2026-04-30 13:28 | 52.63951 | -24.71060 | 39322 ft | 483 kts | 263° |
| 2026-04-30 13:29 | 52.61814 | -24.92849 | 39333 ft | 481 kts | 263° |
| 2026-04-30 13:31 | 52.59093 | -25.20007 | 39340 ft | 481 kts | 263° |
| 2026-04-30 13:32 | 52.56314 | -25.47089 | 39344 ft | 483 kts | 262° |
| 2026-04-30 13:33 | 52.54032 | -25.68860 | 39347 ft | 483 kts | 262° |
| 2026-04-30 13:34 | 52.52296 | -25.85162 | 39350 ft | 484 kts | 262° |
| 2026-04-30 13:35 | 52.49938 | -26.06955 | 39349 ft | 485 kts | 262° |
| 2026-04-30 13:36 | 52.47539 | -26.28729 | 39352 ft | 485 kts | 262° |
| 2026-04-30 13:36 | 52.45713 | -26.45053 | 39358 ft | 485 kts | 261° |
| 2026-04-30 13:37 | 52.43871 | -26.61299 | 39360 ft | 485 kts | 261° |
| 2026-04-30 13:38 | 52.41998 | -26.77616 | 39350 ft | 485 kts | 261° |
| 2026-04-30 13:39 | 52.39461 | -26.99389 | 39360 ft | 490 kts | 261° |
| 2026-04-30 13:40 | 52.37520 | -27.15807 | 39366 ft | 491 kts | 261° |
| 2026-04-30 13:40 | 52.36205 | -27.26804 | 39367 ft | 491 kts | 261° |
| 2026-04-30 13:41 | 52.34889 | -27.37728 | 39377 ft | 492 kts | 261° |
| 2026-04-30 13:41 | 52.33553 | -27.48721 | 39370 ft | 492 kts | 261° |
| 2026-04-30 13:42 | 52.32203 | -27.59738 | 39377 ft | 492 kts | 261° |
| 2026-04-30 13:42 | 52.30171 | -27.76157 | 39372 ft | 492 kts | 261° |
| 2026-04-30 13:43 | 52.28799 | -27.87140 | 39380 ft | 494 kts | 261° |
| 2026-04-30 13:43 | 52.27420 | -27.98080 | 39378 ft | 494 kts | 260° |
| 2026-04-30 13:44 | 52.26024 | -28.09070 | 39382 ft | 494 kts | 260° |
| 2026-04-30 13:44 | 52.24618 | -28.20056 | 39387 ft | 494 kts | 260° |
| 2026-04-30 13:45 | 52.22495 | -28.36478 | 39386 ft | 495 kts | 260° |
| 2026-04-30 13:46 | 52.21061 | -28.47457 | 39385 ft | 495 kts | 260° |
| 2026-04-30 13:46 | 52.19623 | -28.58388 | 39390 ft | 495 kts | 260° |
| 2026-04-30 13:47 | 52.18167 | -28.69372 | 39392 ft | 495 kts | 260° |
| 2026-04-30 13:47 | 52.16702 | -28.80340 | 39391 ft | 495 kts | 259° |
| 2026-04-30 13:48 | 52.15223 | -28.91332 | 39393 ft | 496 kts | 259° |
| 2026-04-30 13:48 | 52.13742 | -29.02247 | 39395 ft | 497 kts | 259° |
| 2026-04-30 13:49 | 52.12239 | -29.13245 | 39401 ft | 497 kts | 259° |
| 2026-04-30 13:49 | 52.10724 | -29.24255 | 39390 ft | 497 kts | 259° |
| 2026-04-30 13:50 | 52.09209 | -29.35181 | 39401 ft | 498 kts | 259° |
| 2026-04-30 13:50 | 52.06900 | -29.51677 | 39399 ft | 498 kts | 259° |
| 2026-04-30 13:51 | 52.05345 | -29.62685 | 39398 ft | 498 kts | 259° |
| 2026-04-30 13:51 | 52.03793 | -29.73594 | 39392 ft | 498 kts | 258° |
| 2026-04-30 13:52 | 52.02219 | -29.84581 | 39405 ft | 499 kts | 258° |
| 2026-04-30 13:52 | 52.00640 | -29.95524 | 39408 ft | 500 kts | 258° |
| 2026-04-30 13:53 | 51.99618 | -30.06669 | 39409 ft | 497 kts | 266° |
| 2026-04-30 13:53 | 51.98951 | -30.17799 | 39422 ft | 497 kts | 266° |
| 2026-04-30 13:54 | 51.98321 | -30.28993 | 39417 ft | 498 kts | 266° |
| 2026-04-30 13:54 | 51.97674 | -30.40206 | 39403 ft | 498 kts | 266° |
| 2026-04-30 13:55 | 51.97012 | -30.51324 | 39412 ft | 498 kts | 266° |
| 2026-04-30 13:55 | 51.96330 | -30.62538 | 39416 ft | 498 kts | 266° |
| 2026-04-30 13:56 | 51.95642 | -30.73674 | 39415 ft | 498 kts | 266° |
| 2026-04-30 13:56 | 51.94940 | -30.84872 | 39414 ft | 499 kts | 265° |
| 2026-04-30 13:57 | 51.94225 | -30.96098 | 39417 ft | 499 kts | 265° |
| 2026-04-30 13:57 | 51.93505 | -31.07232 | 39417 ft | 499 kts | 265° |
| 2026-04-30 13:58 | 51.92399 | -31.24022 | 39420 ft | 499 kts | 265° |
| 2026-04-30 13:59 | 51.91650 | -31.35179 | 39419 ft | 499 kts | 265° |
| 2026-04-30 13:59 | 51.90887 | -31.46391 | 39419 ft | 499 kts | 265° |
| 2026-04-30 14:00 | 51.90120 | -31.57510 | 39419 ft | 499 kts | 265° |
| 2026-04-30 14:00 | 51.88940 | -31.74315 | 39422 ft | 500 kts | 265° |
| 2026-04-30 14:01 | 51.88146 | -31.85430 | 39419 ft | 500 kts | 264° |
| 2026-04-30 14:01 | 51.87335 | -31.96634 | 39424 ft | 500 kts | 264° |
| 2026-04-30 14:02 | 51.86513 | -32.07828 | 39424 ft | 500 kts | 264° |
| 2026-04-30 14:02 | 51.85686 | -32.18948 | 39424 ft | 500 kts | 264° |
| 2026-04-30 14:03 | 51.84844 | -32.30124 | 39427 ft | 500 kts | 264° |
| 2026-04-30 14:03 | 51.83994 | -32.41265 | 39427 ft | 501 kts | 264° |
| 2026-04-30 14:04 | 51.83128 | -32.52462 | 39424 ft | 501 kts | 264° |
| 2026-04-30 14:04 | 51.82252 | -32.63664 | 39427 ft | 501 kts | 264° |
| 2026-04-30 14:05 | 51.81371 | -32.74776 | 39427 ft | 501 kts | 264° |
| 2026-04-30 14:05 | 51.80475 | -32.85952 | 39427 ft | 501 kts | 263° |
| 2026-04-30 14:06 | 51.79115 | -33.02652 | 39419 ft | 501 kts | 263° |
| 2026-04-30 14:07 | 51.77724 | -33.19423 | 39430 ft | 502 kts | 263° |
| 2026-04-30 14:08 | 51.76316 | -33.36111 | 39436 ft | 502 kts | 263° |
| 2026-04-30 14:08 | 51.74874 | -33.52900 | 39436 ft | 502 kts | 263° |
| 2026-04-30 14:09 | 51.73906 | -33.64015 | 39435 ft | 502 kts | 262° |
| 2026-04-30 14:10 | 51.72427 | -33.80768 | 39435 ft | 502 kts | 262° |
| 2026-04-30 14:10 | 51.71432 | -33.91874 | 39442 ft | 502 kts | 262° |
| 2026-04-30 14:11 | 51.70421 | -34.03043 | 39442 ft | 503 kts | 262° |
| 2026-04-30 14:11 | 51.69573 | -34.12312 | 39442 ft | 503 kts | 262° |
| 2026-04-30 14:12 | 51.68375 | -34.25278 | 39436 ft | 503 kts | 262° |
| 2026-04-30 14:12 | 51.67507 | -34.34570 | 39436 ft | 503 kts | 262° |
| 2026-04-30 14:13 | 51.66454 | -34.45736 | 39438 ft | 503 kts | 261° |
| 2026-04-30 14:13 | 51.65390 | -34.56904 | 39441 ft | 504 kts | 261° |
| 2026-04-30 14:14 | 51.64323 | -34.67975 | 39438 ft | 504 kts | 261° |
| 2026-04-30 14:14 | 51.63236 | -34.79145 | 39438 ft | 504 kts | 261° |
| 2026-04-30 14:15 | 51.62147 | -34.90229 | 39441 ft | 504 kts | 261° |
| 2026-04-30 14:15 | 51.61039 | -35.01395 | 39441 ft | 504 kts | 261° |
| 2026-04-30 14:16 | 51.59928 | -35.12470 | 39441 ft | 504 kts | 261° |
| 2026-04-30 14:16 | 51.58801 | -35.23596 | 39441 ft | 504 kts | 261° |
| 2026-04-30 14:17 | 51.57661 | -35.34744 | 39438 ft | 504 kts | 261° |
| 2026-04-30 14:17 | 51.56512 | -35.45874 | 39436 ft | 504 kts | 260° |
| 2026-04-30 14:18 | 51.55360 | -35.56921 | 39441 ft | 504 kts | 260° |
| 2026-04-30 14:18 | 51.53600 | -35.73607 | 39441 ft | 504 kts | 260° |
| 2026-04-30 14:19 | 51.51814 | -35.90297 | 39443 ft | 504 kts | 260° |
| 2026-04-30 14:20 | 51.50619 | -36.01336 | 39445 ft | 504 kts | 260° |
| 2026-04-30 14:20 | 51.48794 | -36.18009 | 39446 ft | 505 kts | 259° |
| 2026-04-30 14:21 | 51.47573 | -36.29028 | 39446 ft | 505 kts | 259° |
| 2026-04-30 14:22 | 51.45709 | -36.45669 | 39446 ft | 504 kts | 259° |
| 2026-04-30 14:22 | 51.43827 | -36.62244 | 39441 ft | 504 kts | 259° |
| 2026-04-30 14:23 | 51.41283 | -36.84316 | 39446 ft | 504 kts | 259° |
| 2026-04-30 14:24 | 51.39342 | -37.00905 | 39447 ft | 504 kts | 259° |
| 2026-04-30 14:25 | 51.36721 | -37.22975 | 39449 ft | 505 kts | 258° |
| 2026-04-30 14:26 | 51.34730 | -37.39487 | 39446 ft | 505 kts | 258° |
| 2026-04-30 14:27 | 51.32707 | -37.56063 | 39446 ft | 506 kts | 258° |
| 2026-04-30 14:27 | 51.31354 | -37.67035 | 39447 ft | 506 kts | 258° |
| 2026-04-30 14:28 | 51.29289 | -37.83604 | 39448 ft | 505 kts | 258° |
| 2026-04-30 14:28 | 51.27914 | -37.94533 | 39449 ft | 504 kts | 258° |
| 2026-04-30 14:29 | 51.25117 | -38.16493 | 39446 ft | 505 kts | 258° |
| 2026-04-30 14:31 | 51.21554 | -38.43973 | 39451 ft | 506 kts | 257° |
| 2026-04-30 14:31 | 51.19386 | -38.60436 | 39449 ft | 506 kts | 257° |
| 2026-04-30 14:32 | 51.17193 | -38.76898 | 39449 ft | 506 kts | 257° |
| 2026-04-30 14:33 | 51.15718 | -38.87863 | 39449 ft | 506 kts | 257° |
| 2026-04-30 14:33 | 51.13488 | -39.04287 | 39450 ft | 505 kts | 257° |
| 2026-04-30 14:34 | 51.11991 | -39.15214 | 39447 ft | 505 kts | 257° |
| 2026-04-30 14:34 | 51.10482 | -39.26142 | 39450 ft | 505 kts | 257° |
| 2026-04-30 14:35 | 51.08200 | -39.42515 | 39452 ft | 505 kts | 257° |
| 2026-04-30 14:36 | 51.06668 | -39.53414 | 39452 ft | 506 kts | 257° |
| 2026-04-30 14:36 | 51.05131 | -39.64266 | 39449 ft | 507 kts | 257° |
| 2026-04-30 14:37 | 51.03563 | -39.75258 | 39446 ft | 507 kts | 256° |
| 2026-04-30 14:37 | 51.02004 | -39.86105 | 39446 ft | 507 kts | 256° |
| 2026-04-30 14:38 | 51.00434 | -39.97024 | 39449 ft | 507 kts | 257° |
| 2026-04-30 14:38 | 50.99527 | -40.08122 | 39447 ft | 507 kts | 264° |
| 2026-04-30 14:39 | 50.98871 | -40.19256 | 39447 ft | 506 kts | 264° |
| 2026-04-30 14:39 | 50.98248 | -40.30384 | 39450 ft | 506 kts | 264° |
| 2026-04-30 14:40 | 50.97280 | -40.47058 | 39446 ft | 506 kts | 264° |
| 2026-04-30 14:40 | 50.96611 | -40.58186 | 39447 ft | 507 kts | 264° |
| 2026-04-30 14:41 | 50.95930 | -40.69323 | 39446 ft | 507 kts | 264° |
| 2026-04-30 14:41 | 50.95237 | -40.80465 | 39446 ft | 508 kts | 264° |
| 2026-04-30 14:42 | 50.94534 | -40.91601 | 39437 ft | 507 kts | 264° |
| 2026-04-30 14:42 | 50.93824 | -41.02693 | 39442 ft | 505 kts | 264° |
| 2026-04-30 14:43 | 50.93104 | -41.13763 | 39446 ft | 505 kts | 264° |
| 2026-04-30 14:43 | 50.92373 | -41.24845 | 39446 ft | 506 kts | 264° |
| 2026-04-30 14:44 | 50.91635 | -41.35858 | 39446 ft | 506 kts | 263° |
| 2026-04-30 14:44 | 50.90883 | -41.46931 | 39446 ft | 506 kts | 263° |
| 2026-04-30 14:45 | 50.90120 | -41.58011 | 39444 ft | 506 kts | 263° |
| 2026-04-30 14:45 | 50.89346 | -41.69093 | 39443 ft | 506 kts | 263° |
| 2026-04-30 14:46 | 50.88562 | -41.80168 | 39446 ft | 506 kts | 263° |
| 2026-04-30 14:46 | 50.87897 | -41.89435 | 39446 ft | 506 kts | 263° |
| 2026-04-30 14:47 | 50.86962 | -42.02296 | 39444 ft | 506 kts | 263° |
| 2026-04-30 14:47 | 50.86147 | -42.13353 | 39443 ft | 506 kts | 263° |
| 2026-04-30 14:48 | 50.85321 | -42.24402 | 39449 ft | 506 kts | 263° |
| 2026-04-30 14:48 | 50.84483 | -42.35479 | 39446 ft | 507 kts | 263° |
| 2026-04-30 14:49 | 50.83633 | -42.46568 | 39449 ft | 508 kts | 263° |
| 2026-04-30 14:49 | 50.82773 | -42.57649 | 39441 ft | 507 kts | 262° |
| 2026-04-30 14:50 | 50.81469 | -42.74192 | 39450 ft | 504 kts | 262° |
| 2026-04-30 14:51 | 50.80147 | -42.90710 | 39452 ft | 506 kts | 262° |
| 2026-04-30 14:52 | 50.78790 | -43.07261 | 39449 ft | 506 kts | 261° |
| 2026-04-30 14:52 | 50.77402 | -43.23719 | 39449 ft | 506 kts | 262° |
| 2026-04-30 14:53 | 50.76097 | -43.39427 | 39452 ft | 507 kts | 262° |
| 2026-04-30 14:54 | 50.74203 | -43.61342 | 39454 ft | 504 kts | 262° |
| 2026-04-30 14:55 | 50.72754 | -43.77754 | 39452 ft | 504 kts | 261° |
| 2026-04-30 14:56 | 50.70797 | -43.99571 | 39454 ft | 504 kts | 261° |
| 2026-04-30 14:57 | 50.69289 | -44.16068 | 39454 ft | 504 kts | 261° |
| 2026-04-30 14:58 | 50.67266 | -44.37789 | 39454 ft | 502 kts | 261° |
| 2026-04-30 14:58 | 50.65725 | -44.54043 | 39454 ft | 502 kts | 261° |
| 2026-04-30 15:00 | 50.63276 | -44.79493 | 39455 ft | 503 kts | 261° |
| 2026-04-30 15:01 | 50.61129 | -45.01238 | 39457 ft | 503 kts | 261° |
| 2026-04-30 15:01 | 50.59501 | -45.17434 | 39454 ft | 500 kts | 260° |
| 2026-04-30 15:02 | 50.58403 | -45.28232 | 39454 ft | 499 kts | 260° |
| 2026-04-30 15:03 | 50.55615 | -45.55184 | 39452 ft | 499 kts | 259° |
| 2026-04-30 15:04 | 50.52763 | -45.82128 | 39454 ft | 500 kts | 259° |
| 2026-04-30 15:06 | 50.49859 | -46.08941 | 39452 ft | 496 kts | 259° |
| 2026-04-30 15:07 | 50.47502 | -46.30284 | 39454 ft | 496 kts | 259° |
| 2026-04-30 15:08 | 50.45106 | -46.51599 | 39449 ft | 496 kts | 258° |
| 2026-04-30 15:09 | 50.42064 | -46.78144 | 39449 ft | 493 kts | 258° |
| 2026-04-30 15:10 | 50.39611 | -46.99157 | 39452 ft | 491 kts | 258° |
| 2026-04-30 15:11 | 50.35850 | -47.30706 | 39446 ft | 491 kts | 258° |
| 2026-04-30 15:13 | 50.32655 | -47.56942 | 39442 ft | 490 kts | 257° |
| 2026-04-30 15:14 | 50.28114 | -47.93350 | 39441 ft | 487 kts | 257° |
| 2026-04-30 15:17 | 50.22110 | -48.40054 | 39438 ft | 485 kts | 257° |
| 2026-04-30 15:19 | 50.16664 | -48.81109 | 39430 ft | 483 kts | 256° |
| 2026-04-30 17:39 | 46.22313 | -75.93168 | 39864 ft | 474 kts | 246° |
| 2026-04-30 17:42 | 46.09964 | -76.37356 | 39865 ft | 475 kts | 245° |
| 2026-04-30 17:43 | 46.03724 | -76.59382 | 39877 ft | 476 kts | 245° |
| 2026-04-30 17:44 | 45.96191 | -76.85709 | 39897 ft | 476 kts | 245° |
| 2026-04-30 17:47 | 45.84758 | -77.25141 | 39899 ft | 476 kts | 245° |
| 2026-04-30 17:48 | 45.75769 | -77.55703 | 39908 ft | 477 kts | 245° |
| 2026-04-30 17:50 | 45.65375 | -77.90583 | 39917 ft | 476 kts | 245° |
| 2026-04-30 17:52 | 45.57519 | -78.16633 | 39915 ft | 476 kts | 245° |
| 2026-04-30 17:54 | 45.45643 | -78.55504 | 39914 ft | 476 kts | 245° |
| 2026-04-30 17:56 | 45.34960 | -78.89970 | 39922 ft | 476 kts | 245° |
| 2026-04-30 17:58 | 45.26896 | -79.15685 | 39942 ft | 476 kts | 245° |
| 2026-04-30 18:00 | 45.16079 | -79.49782 | 39953 ft | 475 kts | 244° |
| 2026-04-30 18:01 | 45.09249 | -79.71048 | 39961 ft | 475 kts | 244° |
| 2026-04-30 18:02 | 45.03654 | -79.82523 | 39966 ft | 473 kts | 231° |
| 2026-04-30 18:02 | 44.97356 | -79.93245 | 39982 ft | 474 kts | 230° |
| 2026-04-30 18:04 | 44.84734 | -80.14614 | 39998 ft | 472 kts | 230° |
| 2026-04-30 18:06 | 44.67934 | -80.42910 | 40004 ft | 471 kts | 230° |
| 2026-04-30 18:08 | 44.53181 | -80.67524 | 39996 ft | 471 kts | 230° |
| 2026-04-30 18:10 | 44.36985 | -80.94301 | 39993 ft | 471 kts | 230° |
| 2026-04-30 18:11 | 44.22116 | -81.18666 | 39990 ft | 470 kts | 230° |
| 2026-04-30 18:13 | 44.11488 | -81.35956 | 39997 ft | 470 kts | 230° |
| 2026-04-30 18:14 | 44.00830 | -81.53188 | 40007 ft | 469 kts | 230° |
| 2026-04-30 18:15 | 43.88030 | -81.73752 | 40014 ft | 468 kts | 231° |
| 2026-04-30 18:16 | 43.79521 | -81.87337 | 40026 ft | 468 kts | 231° |
| 2026-04-30 18:17 | 43.75256 | -81.94120 | 40026 ft | 468 kts | 230° |
| 2026-04-30 18:18 | 43.68837 | -82.04303 | 40032 ft | 468 kts | 230° |
| 2026-04-30 18:18 | 43.64559 | -82.11069 | 40039 ft | 468 kts | 230° |
| 2026-04-30 18:19 | 43.60275 | -82.17829 | 40041 ft | 468 kts | 230° |
| 2026-04-30 18:19 | 43.55988 | -82.24577 | 40025 ft | 467 kts | 231° |
| 2026-04-30 18:20 | 43.51707 | -82.31299 | 40040 ft | 466 kts | 231° |
| 2026-04-30 18:20 | 43.47440 | -82.37985 | 40043 ft | 466 kts | 230° |
| 2026-04-30 18:21 | 43.43170 | -82.44660 | 40034 ft | 466 kts | 231° |
| 2026-04-30 18:21 | 43.38886 | -82.51342 | 40038 ft | 466 kts | 230° |
| 2026-04-30 18:22 | 43.34621 | -82.57978 | 40024 ft | 465 kts | 231° |
| 2026-04-30 18:22 | 43.28228 | -82.68006 | 40025 ft | 464 kts | 234° |
| 2026-04-30 18:23 | 43.24981 | -82.75582 | 40012 ft | 460 kts | 248° |
| 2026-04-30 18:23 | 43.22642 | -82.83746 | 40011 ft | 460 kts | 250° |
| 2026-04-30 18:24 | 43.19192 | -82.96027 | 40007 ft | 460 kts | 250° |
| 2026-04-30 18:25 | 43.16888 | -83.04191 | 40011 ft | 459 kts | 250° |
| 2026-04-30 18:25 | 43.13425 | -83.16406 | 40024 ft | 459 kts | 250° |
| 2026-04-30 18:26 | 43.09960 | -83.28572 | 40017 ft | 460 kts | 250° |
| 2026-04-30 18:27 | 43.06462 | -83.40779 | 40023 ft | 460 kts | 250° |
| 2026-04-30 18:28 | 43.02957 | -83.52973 | 40025 ft | 459 kts | 250° |
| 2026-04-30 18:28 | 42.99450 | -83.65109 | 40027 ft | 458 kts | 250° |
| 2026-04-30 18:29 | 42.95975 | -83.81705 | 40026 ft | 456 kts | 263° |
| 2026-04-30 18:30 | 42.94345 | -83.98861 | 40038 ft | 456 kts | 263° |
| 2026-04-30 18:31 | 42.93092 | -84.11700 | 40036 ft | 456 kts | 263° |
| 2026-04-30 18:32 | 42.92247 | -84.20271 | 39870 ft | 455 kts | 263° |
| 2026-04-30 18:32 | 42.91822 | -84.24547 | 39363 ft | 456 kts | 263° |
| 2026-04-30 18:32 | 42.90966 | -84.33130 | 37891 ft | 457 kts | 263° |
| 2026-04-30 18:33 | 42.90535 | -84.37420 | 37080 ft | 457 kts | 263° |
| 2026-04-30 18:33 | 42.89669 | -84.46003 | 35546 ft | 456 kts | 263° |
| 2026-04-30 18:33 | 42.89235 | -84.50286 | 34785 ft | 455 kts | 263° |
| 2026-04-30 18:34 | 42.88800 | -84.54556 | 33991 ft | 454 kts | 263° |
| 2026-04-30 18:34 | 42.87932 | -84.63047 | 32183 ft | 451 kts | 264° |
| 2026-04-30 18:34 | 42.87495 | -84.67274 | 31291 ft | 450 kts | 264° |
| 2026-04-30 18:35 | 42.87060 | -84.71479 | 30457 ft | 446 kts | 264° |
| 2026-04-30 18:35 | 42.86630 | -84.75609 | 29202 ft | 440 kts | 264° |
| 2026-04-30 18:35 | 42.86202 | -84.79737 | 28174 ft | 440 kts | 264° |
| 2026-04-30 18:36 | 42.85347 | -84.87893 | 26928 ft | 425 kts | 264° |
| 2026-04-30 18:36 | 42.84930 | -84.91821 | 26539 ft | 414 kts | 264° |
| 2026-04-30 18:36 | 42.84124 | -84.99402 | 25772 ft | 395 kts | 265° |
| 2026-04-30 18:37 | 42.83733 | -85.03067 | 25403 ft | 386 kts | 265° |
| 2026-04-30 18:37 | 42.83350 | -85.06642 | 25025 ft | 377 kts | 265° |
| 2026-04-30 18:37 | 42.82975 | -85.10136 | 24655 ft | 369 kts | 265° |
| 2026-04-30 18:37 | 42.82607 | -85.13556 | 24296 ft | 361 kts | 265° |
| 2026-04-30 18:38 | 42.82246 | -85.16911 | 23936 ft | 354 kts | 265° |
| 2026-04-30 18:38 | 42.81896 | -85.20152 | 23579 ft | 347 kts | 265° |
| 2026-04-30 18:38 | 42.81548 | -85.23369 | 23163 ft | 341 kts | 265° |
| 2026-04-30 18:38 | 42.81199 | -85.26599 | 23054 ft | 344 kts | 265° |
| 2026-04-30 18:39 | 42.80855 | -85.29776 | 23051 ft | 346 kts | 265° |
| 2026-04-30 18:39 | 42.80503 | -85.33009 | 23055 ft | 347 kts | 265° |
| 2026-04-30 18:39 | 42.80152 | -85.36220 | 23052 ft | 347 kts | 265° |
| 2026-04-30 18:39 | 42.79796 | -85.39464 | 23060 ft | 347 kts | 265° |
| 2026-04-30 18:40 | 42.79440 | -85.42699 | 23044 ft | 347 kts | 265° |
| 2026-04-30 18:40 | 42.79081 | -85.45950 | 23051 ft | 347 kts | 265° |
| 2026-04-30 18:40 | 42.78704 | -85.49193 | 23051 ft | 348 kts | 263° |
| 2026-04-30 18:40 | 42.78187 | -85.52420 | 23052 ft | 349 kts | 261° |
| 2026-04-30 18:41 | 42.77615 | -85.55628 | 23063 ft | 349 kts | 261° |
| 2026-04-30 18:41 | 42.77037 | -85.58841 | 23049 ft | 349 kts | 261° |
| 2026-04-30 18:41 | 42.76460 | -85.62047 | 23050 ft | 349 kts | 261° |
| 2026-04-30 18:41 | 42.75882 | -85.65260 | 23067 ft | 349 kts | 261° |
| 2026-04-30 18:42 | 42.75304 | -85.68466 | 23053 ft | 349 kts | 261° |
| 2026-04-30 18:42 | 42.74151 | -85.74885 | 23073 ft | 349 kts | 261° |
| 2026-04-30 18:42 | 42.73573 | -85.78081 | 23063 ft | 349 kts | 260° |
| 2026-04-30 18:45 | 42.67631 | -86.10657 | 22657 ft | 377 kts | 260° |
| 2026-04-30 18:45 | 42.66993 | -86.14089 | 22201 ft | 370 kts | 259° |
| 2026-04-30 18:45 | 42.66368 | -86.17455 | 21643 ft | 366 kts | 259° |
| 2026-04-30 18:46 | 42.65750 | -86.20785 | 21105 ft | 362 kts | 259° |
| 2026-04-30 18:46 | 42.65138 | -86.24083 | 20550 ft | 358 kts | 259° |
| 2026-04-30 18:46 | 42.64529 | -86.27373 | 20188 ft | 363 kts | 259° |
| 2026-04-30 18:46 | 42.63909 | -86.30728 | 20096 ft | 368 kts | 259° |
| 2026-04-30 18:47 | 42.63284 | -86.34081 | 20099 ft | 362 kts | 259° |
| 2026-04-30 18:47 | 42.62670 | -86.37353 | 20100 ft | 354 kts | 259° |
| 2026-04-30 18:47 | 42.62066 | -86.40578 | 20104 ft | 352 kts | 259° |
| 2026-04-30 18:47 | 42.61465 | -86.43794 | 20104 ft | 352 kts | 259° |
| 2026-04-30 18:48 | 42.60862 | -86.47012 | 20102 ft | 352 kts | 259° |
| 2026-04-30 18:48 | 42.60258 | -86.50229 | 20105 ft | 352 kts | 259° |
| 2026-04-30 18:48 | 42.59654 | -86.53442 | 20111 ft | 352 kts | 259° |
| 2026-04-30 18:48 | 42.59049 | -86.56655 | 20109 ft | 352 kts | 259° |
| 2026-04-30 18:49 | 42.58442 | -86.59873 | 20105 ft | 352 kts | 259° |
| 2026-04-30 18:49 | 42.57834 | -86.63087 | 20112 ft | 352 kts | 259° |
| 2026-04-30 18:49 | 42.57224 | -86.66310 | 20107 ft | 352 kts | 259° |
| 2026-04-30 18:49 | 42.56615 | -86.69521 | 20094 ft | 352 kts | 259° |
| 2026-04-30 18:50 | 42.55948 | -86.72721 | 20119 ft | 353 kts | 256° |
| 2026-04-30 18:50 | 42.55134 | -86.75866 | 20118 ft | 354 kts | 254° |
| 2026-04-30 18:50 | 42.54288 | -86.78988 | 20102 ft | 354 kts | 254° |
| 2026-04-30 18:50 | 42.53441 | -86.82114 | 20106 ft | 354 kts | 254° |
| 2026-04-30 18:51 | 42.52593 | -86.85241 | 20114 ft | 354 kts | 254° |
| 2026-04-30 18:51 | 42.51755 | -86.88332 | 20114 ft | 354 kts | 254° |
| 2026-04-30 18:51 | 42.50907 | -86.91455 | 20103 ft | 354 kts | 254° |
| 2026-04-30 18:51 | 42.50056 | -86.94588 | 20103 ft | 354 kts | 254° |
| 2026-04-30 18:52 | 42.49211 | -86.97692 | 20103 ft | 354 kts | 254° |
| 2026-04-30 18:52 | 42.48361 | -87.00810 | 20102 ft | 354 kts | 254° |
| 2026-04-30 18:52 | 42.47507 | -87.03936 | 20103 ft | 354 kts | 254° |
| 2026-04-30 18:52 | 42.46653 | -87.07060 | 20102 ft | 354 kts | 254° |
| 2026-04-30 18:53 | 42.45797 | -87.10183 | 20105 ft | 354 kts | 254° |
| 2026-04-30 18:53 | 42.44943 | -87.13313 | 20105 ft | 354 kts | 254° |
| 2026-04-30 18:53 | 42.44088 | -87.16430 | 20104 ft | 354 kts | 254° |
| 2026-04-30 18:53 | 42.43223 | -87.19584 | 19961 ft | 364 kts | 254° |
| 2026-04-30 18:54 | 42.42332 | -87.22830 | 19718 ft | 370 kts | 253° |
| 2026-04-30 18:54 | 42.41735 | -87.24997 | 19561 ft | 370 kts | 253° |
| 2026-04-30 18:54 | 42.40837 | -87.28251 | 19324 ft | 369 kts | 253° |
| 2026-04-30 18:54 | 42.39941 | -87.31496 | 19074 ft | 368 kts | 253° |
| 2026-04-30 18:55 | 42.38787 | -87.35692 | 18729 ft | 366 kts | 253° |
| 2026-04-30 18:55 | 42.37296 | -87.41061 | 17881 ft | 357 kts | 253° |
| 2026-04-30 18:55 | 42.36433 | -87.44164 | 17321 ft | 353 kts | 254° |
| 2026-04-30 18:56 | 42.34718 | -87.50283 | 16131 ft | 348 kts | 252° |
| 2026-04-30 18:56 | 42.33565 | -87.53160 | 15583 ft | 352 kts | 240° |
| 2026-04-30 18:56 | 42.31883 | -87.55559 | 15007 ft | 359 kts | 227° |
| 2026-04-30 18:57 | 42.27985 | -87.59702 | 13834 ft | 356 kts | 225° |
| 2026-04-30 18:57 | 42.26044 | -87.61742 | 13242 ft | 351 kts | 225° |
| 2026-04-30 18:57 | 42.24123 | -87.63757 | 12701 ft | 348 kts | 224° |
| 2026-04-30 18:58 | 42.20333 | -87.67718 | 11613 ft | 342 kts | 224° |
| 2026-04-30 18:58 | 42.18513 | -87.69740 | 11143 ft | 337 kts | 229° |
| 2026-04-30 18:58 | 42.16930 | -87.72065 | 10999 ft | 336 kts | 235° |
| 2026-04-30 18:59 | 42.13983 | -87.76979 | 11015 ft | 337 kts | 236° |
| 2026-04-30 19:00 | 42.10833 | -87.85100 | 11020 ft | 326 kts | 263° |
| 2026-04-30 19:00 | 42.10514 | -87.88114 | 11012 ft | 326 kts | 265° |
| 2026-04-30 19:00 | 42.09937 | -87.94147 | 11014 ft | 326 kts | 265° |
| 2026-04-30 19:01 | 42.09364 | -88.00201 | 11009 ft | 326 kts | 265° |
| 2026-04-30 19:01 | 42.09079 | -88.03229 | 11012 ft | 326 kts | 265° |
| 2026-04-30 19:02 | 42.08514 | -88.09273 | 11002 ft | 326 kts | 265° |
| 2026-04-30 19:02 | 42.08017 | -88.15321 | 10985 ft | 325 kts | 265° |
| 2026-04-30 19:03 | 42.07541 | -88.21376 | 10908 ft | 325 kts | 265° |
| 2026-04-30 19:03 | 42.07081 | -88.27420 | 9715 ft | 322 kts | 265° |
| 2026-04-30 19:04 | 42.06670 | -88.33196 | 9148 ft | 297 kts | 265° |
| 2026-04-30 19:04 | 42.06287 | -88.38491 | 8691 ft | 274 kts | 257° |
| 2026-04-30 19:05 | 42.03928 | -88.42172 | 8072 ft | 270 kts | 205° |
| 2026-04-30 19:05 | 42.00165 | -88.42339 | 7260 ft | 274 kts | 177° |
| 2026-04-30 19:06 | 41.96677 | -88.40579 | 6970 ft | 283 kts | 133° |
| 2026-04-30 19:06 | 41.95812 | -88.38203 | 6982 ft | 287 kts | 105° |
| 2026-04-30 19:06 | 41.95463 | -88.32858 | 6896 ft | 287 kts | 85° |
| 2026-04-30 19:07 | 41.96310 | -88.27646 | 5954 ft | 287 kts | 73° |
| 2026-04-30 19:07 | 41.96600 | -88.25006 | 5494 ft | 286 kts | 89° |
| 2026-04-30 19:08 | 41.96518 | -88.19728 | 4638 ft | 282 kts | 91° |
| 2026-04-30 19:08 | 41.96536 | -88.14501 | 3870 ft | 274 kts | 90° |
| 2026-04-30 19:08 | 41.96539 | -88.12019 | 3504 ft | 257 kts | 90° |
| 2026-04-30 19:09 | 41.96543 | -88.07506 | 2841 ft | 226 kts | 89° |
| 2026-04-30 19:09 | 41.96548 | -88.05467 | 2565 ft | 211 kts | 89° |
| 2026-04-30 19:09 | 41.96551 | -88.03562 | 2290 ft | 197 kts | 90° |
| 2026-04-30 19:10 | 41.96562 | -88.00114 | 1764 ft | 172 kts | 89° |
| 2026-04-30 19:10 | 41.96595 | -87.97113 | 1331 ft | 152 kts | 88° |
| 2026-04-30 19:11 | 41.96578 | -87.95747 | 1106 ft | 142 kts | 88° |
| 2026-04-30 19:11 | 41.96570 | -87.93240 | 733 ft | 126 kts | 87° |
| 2026-04-30 19:11 | 41.96575 | -87.92134 | 684 ft | 102 kts | 90° |
| 2026-04-30 19:12 | 41.96574 | -87.91377 | 674 ft | 60 kts | 90° |
| 2026-04-30 19:12 | 41.96589 | -87.91012 | 677 ft | 24 kts | 78° |
| 2026-04-30 19:12 | 41.96641 | -87.90807 | 673 ft | 15 kts | 61° |
| 2026-04-30 19:13 | 41.96736 | -87.90798 | 675 ft | 9 kts | 286° |
| 2026-04-30 19:13 | 41.96740 | -87.91017 | 675 ft | 15 kts | 270° |
| 2026-04-30 19:13 | 41.96740 | -87.91168 | 673 ft | 17 kts | 270° |
| 2026-04-30 19:14 | 41.96739 | -87.91328 | 677 ft | 18 kts | 270° |
| 2026-04-30 19:14 | 41.96739 | -87.91509 | 676 ft | 21 kts | 270° |
| 2026-04-30 19:14 | 41.96739 | -87.91720 | 677 ft | 23 kts | 270° |
| 2026-04-30 19:14 | 41.96738 | -87.91949 | 677 ft | 26 kts | 270° |
| 2026-04-30 19:15 | 41.96738 | -87.92209 | 681 ft | 27 kts | 270° |
| 2026-04-30 19:15 | 41.96737 | -87.92592 | 681 ft | 11 kts | 270° |
| 2026-04-30 19:15 | 41.96780 | -87.92662 | 679 ft | 11 kts | 352° |
| 2026-04-30 19:16 | 41.96867 | -87.92664 | 679 ft | 14 kts | 0° |
| 2026-04-30 19:16 | 41.96970 | -87.92664 | 680 ft | 16 kts | 0° |
| 2026-04-30 19:16 | 41.97141 | -87.92642 | 674 ft | 11 kts | 45° |
| 2026-04-30 19:17 | 41.97156 | -87.92537 | 680 ft | 13 kts | 89° |
| 2026-04-30 19:17 | 41.97157 | -87.92262 | 681 ft | 17 kts | 90° |
| 2026-04-30 19:17 | 41.97157 | -87.92089 | 679 ft | 20 kts | 90° |
| 2026-04-30 19:18 | 41.97157 | -87.91781 | 684 ft | 20 kts | 90° |
| 2026-04-30 19:18 | 41.97157 | -87.91503 | 682 ft | 24 kts | 90° |
| 2026-04-30 19:18 | 41.97158 | -87.91281 | 677 ft | 25 kts | 90° |
| 2026-04-30 19:19 | 41.97158 | -87.91030 | 676 ft | 28 kts | 90° |
| 2026-04-30 19:19 | 41.97159 | -87.90789 | 676 ft | 24 kts | 89° |
| 2026-04-30 19:19 | 41.97137 | -87.90301 | 674 ft | 27 kts | 91° |
| 2026-04-30 19:20 | 41.97138 | -87.90049 | 674 ft | 27 kts | 89° |
| 2026-04-30 19:20 | 41.97150 | -87.89851 | 677 ft | 18 kts | 72° |
| 2026-04-30 19:20 | 41.97253 | -87.89524 | 670 ft | 18 kts | 92° |
| 2026-04-30 19:21 | 41.97206 | -87.89384 | 672 ft | 16 kts | 109° |
| 2026-04-30 19:21 | 41.97196 | -87.89023 | 665 ft | 18 kts | 90° |
| 2026-04-30 19:22 | 41.97197 | -87.88751 | 665 ft | 9 kts | 90° |
| 2026-04-30 19:22 | 41.97270 | -87.88755 | 665 ft | 10 kts | 270° |
| 2026-04-30 19:23 | 41.97276 | -87.88982 | 666 ft | 2 kts | 304° |
| 2026-04-30 19:24 | 41.97319 | -87.88994 | 667 ft | 6 kts | 354° |
| 2026-04-30 19:24 | 41.97348 | -87.88995 | 667 ft | 1 kts | 359° |
| 2026-04-30 19:24 | 41.97354 | -87.88995 | 667 ft | 0 kts | 359° |
| 2026-04-30 19:25 | 41.97353 | -87.88568 | 667 ft | 0 kts | 0° |